sensor_id;sensor_type;location;lat;lon;timestamp;P1;durP1;ratioP1;P2;durP2;ratioP2
15921;SDS011;8060;50.948;3.146;2024-02-26T00:01:52;4.57;;;1.70;;
15921;SDS011;8060;50.948;3.146;2024-02-26T00:04:20;3.77;;;2.10;;
15921;SDS011;8060;50.948;3.146;2024-02-26T00:06:48;6.37;;;2.30;;
15921;SDS011;8060;50.948;3.146;2024-02-26T00:09:17;4.20;;;1.97;;
15921;SDS011;8060;50.948;3.146;2024-02-26T00:11:46;5.57;;;2.00;;
15921;SDS011;8060;50.948;3.146;2024-02-26T00:14:15;2.90;;;2.00;;
15921;SDS011;8060;50.948;3.146;2024-02-26T00:16:43;7.70;;;2.20;;
15921;SDS011;8060;50.948;3.146;2024-02-26T00:19:12;6.43;;;2.40;;
15921;SDS011;8060;50.948;3.146;2024-02-26T00:21:40;4.13;;;2.13;;
15921;SDS011;8060;50.948;3.146;2024-02-26T00:24:08;5.20;;;2.33;;
15921;SDS011;8060;50.948;3.146;2024-02-26T00:26:37;6.17;;;2.30;;
15921;SDS011;8060;50.948;3.146;2024-02-26T00:29:05;3.67;;;2.00;;
15921;SDS011;8060;50.948;3.146;2024-02-26T00:31:35;3.37;;;2.13;;
15921;SDS011;8060;50.948;3.146;2024-02-26T00:34:04;3.83;;;2.27;;
15921;SDS011;8060;50.948;3.146;2024-02-26T00:36:33;5.53;;;2.43;;
15921;SDS011;8060;50.948;3.146;2024-02-26T00:39:01;7.63;;;2.30;;
15921;SDS011;8060;50.948;3.146;2024-02-26T00:41:30;4.87;;;2.30;;
15921;SDS011;8060;50.948;3.146;2024-02-26T00:43:58;4.73;;;2.27;;
15921;SDS011;8060;50.948;3.146;2024-02-26T00:46:26;4.33;;;2.40;;
15921;SDS011;8060;50.948;3.146;2024-02-26T00:48:56;3.60;;;2.40;;
15921;SDS011;8060;50.948;3.146;2024-02-26T00:51:24;4.17;;;2.50;;
15921;SDS011;8060;50.948;3.146;2024-02-26T00:53:52;4.33;;;2.40;;
15921;SDS011;8060;50.948;3.146;2024-02-26T00:56:21;4.50;;;2.20;;
15921;SDS011;8060;50.948;3.146;2024-02-26T00:58:49;3.67;;;2.37;;
15921;SDS011;8060;50.948;3.146;2024-02-26T01:01:17;4.50;;;2.07;;
15921;SDS011;8060;50.948;3.146;2024-02-26T01:03:46;5.03;;;2.40;;
15921;SDS011;8060;50.948;3.146;2024-02-26T01:06:16;6.00;;;2.20;;
15921;SDS011;8060;50.948;3.146;2024-02-26T01:08:44;3.43;;;1.93;;
15921;SDS011;8060;50.948;3.146;2024-02-26T01:11:12;5.67;;;2.20;;
15921;SDS011;8060;50.948;3.146;2024-02-26T01:13:41;6.37;;;2.40;;
15921;SDS011;8060;50.948;3.146;2024-02-26T01:16:09;6.60;;;2.80;;
15921;SDS011;8060;50.948;3.146;2024-02-26T01:18:37;5.27;;;2.30;;
15921;SDS011;8060;50.948;3.146;2024-02-26T01:21:06;6.70;;;2.50;;
15921;SDS011;8060;50.948;3.146;2024-02-26T01:23:37;3.10;;;2.50;;
15921;SDS011;8060;50.948;3.146;2024-02-26T01:26:05;3.50;;;2.50;;
15921;SDS011;8060;50.948;3.146;2024-02-26T01:28:33;3.90;;;2.50;;
15921;SDS011;8060;50.948;3.146;2024-02-26T01:31:01;3.93;;;2.40;;
15921;SDS011;8060;50.948;3.146;2024-02-26T01:33:31;4.73;;;2.20;;
15921;SDS011;8060;50.948;3.146;2024-02-26T01:36:00;6.40;;;3.27;;
15921;SDS011;8060;50.948;3.146;2024-02-26T01:38:28;4.17;;;2.63;;
15921;SDS011;8060;50.948;3.146;2024-02-26T01:40:57;4.37;;;2.80;;
15921;SDS011;8060;50.948;3.146;2024-02-26T01:43:25;4.07;;;2.70;;
15921;SDS011;8060;50.948;3.146;2024-02-26T01:45:54;4.63;;;2.70;;
15921;SDS011;8060;50.948;3.146;2024-02-26T01:48:22;4.43;;;2.87;;
15921;SDS011;8060;50.948;3.146;2024-02-26T01:50:51;4.90;;;2.87;;
15921;SDS011;8060;50.948;3.146;2024-02-26T01:53:19;6.83;;;3.10;;
15921;SDS011;8060;50.948;3.146;2024-02-26T01:55:47;4.37;;;2.70;;
15921;SDS011;8060;50.948;3.146;2024-02-26T01:58:17;4.03;;;2.60;;
15921;SDS011;8060;50.948;3.146;2024-02-26T02:00:45;5.20;;;2.70;;
15921;SDS011;8060;50.948;3.146;2024-02-26T02:03:13;5.80;;;2.60;;
15921;SDS011;8060;50.948;3.146;2024-02-26T02:05:41;4.77;;;2.90;;
15921;SDS011;8060;50.948;3.146;2024-02-26T02:08:10;3.87;;;2.70;;
15921;SDS011;8060;50.948;3.146;2024-02-26T02:10:38;4.93;;;3.00;;
15921;SDS011;8060;50.948;3.146;2024-02-26T02:13:08;5.07;;;2.50;;
15921;SDS011;8060;50.948;3.146;2024-02-26T02:15:37;4.43;;;2.30;;
15921;SDS011;8060;50.948;3.146;2024-02-26T02:18:06;5.93;;;2.80;;
15921;SDS011;8060;50.948;3.146;2024-02-26T02:20:35;4.33;;;2.60;;
15921;SDS011;8060;50.948;3.146;2024-02-26T02:23:04;5.07;;;2.50;;
15921;SDS011;8060;50.948;3.146;2024-02-26T02:25:32;3.97;;;2.77;;
15921;SDS011;8060;50.948;3.146;2024-02-26T02:28:00;3.10;;;2.43;;
15921;SDS011;8060;50.948;3.146;2024-02-26T02:30:29;6.33;;;2.77;;
15921;SDS011;8060;50.948;3.146;2024-02-26T02:32:59;4.90;;;2.83;;
15921;SDS011;8060;50.948;3.146;2024-02-26T02:35:28;7.53;;;2.93;;
15921;SDS011;8060;50.948;3.146;2024-02-26T02:37:57;3.77;;;2.53;;
15921;SDS011;8060;50.948;3.146;2024-02-26T02:40:25;5.47;;;2.90;;
15921;SDS011;8060;50.948;3.146;2024-02-26T02:42:53;5.73;;;3.40;;
15921;SDS011;8060;50.948;3.146;2024-02-26T02:45:22;7.20;;;3.40;;
15921;SDS011;8060;50.948;3.146;2024-02-26T02:47:50;5.20;;;3.50;;
15921;SDS011;8060;50.948;3.146;2024-02-26T02:50:18;4.57;;;3.27;;
15921;SDS011;8060;50.948;3.146;2024-02-26T02:52:46;4.97;;;3.37;;
15921;SDS011;8060;50.948;3.146;2024-02-26T02:55:16;4.40;;;3.60;;
15921;SDS011;8060;50.948;3.146;2024-02-26T02:57:44;4.97;;;3.40;;
15921;SDS011;8060;50.948;3.146;2024-02-26T03:00:12;4.90;;;3.03;;
15921;SDS011;8060;50.948;3.146;2024-02-26T03:02:41;5.83;;;3.03;;
15921;SDS011;8060;50.948;3.146;2024-02-26T03:05:09;4.20;;;2.83;;
15921;SDS011;8060;50.948;3.146;2024-02-26T03:07:37;3.20;;;2.90;;
15921;SDS011;8060;50.948;3.146;2024-02-26T03:10:06;3.33;;;3.03;;
15921;SDS011;8060;50.948;3.146;2024-02-26T03:12:36;3.90;;;2.90;;
15921;SDS011;8060;50.948;3.146;2024-02-26T03:15:04;3.50;;;3.00;;
15921;SDS011;8060;50.948;3.146;2024-02-26T03:17:33;3.87;;;2.87;;
15921;SDS011;8060;50.948;3.146;2024-02-26T03:20:01;5.80;;;3.10;;
15921;SDS011;8060;50.948;3.146;2024-02-26T03:22:31;5.87;;;2.93;;
15921;SDS011;8060;50.948;3.146;2024-02-26T03:24:59;3.40;;;2.60;;
15921;SDS011;8060;50.948;3.146;2024-02-26T03:27:27;4.70;;;3.37;;
15921;SDS011;8060;50.948;3.146;2024-02-26T03:29:57;3.87;;;3.20;;
15921;SDS011;8060;50.948;3.146;2024-02-26T03:32:25;4.43;;;3.10;;
15921;SDS011;8060;50.948;3.146;2024-02-26T03:34:54;4.40;;;3.27;;
15921;SDS011;8060;50.948;3.146;2024-02-26T03:37:22;5.83;;;2.83;;
15921;SDS011;8060;50.948;3.146;2024-02-26T03:39:51;3.13;;;2.63;;
15921;SDS011;8060;50.948;3.146;2024-02-26T03:42:19;4.80;;;3.20;;
15921;SDS011;8060;50.948;3.146;2024-02-26T03:44:47;4.27;;;3.10;;
15921;SDS011;8060;50.948;3.146;2024-02-26T03:47:17;5.40;;;3.43;;
15921;SDS011;8060;50.948;3.146;2024-02-26T03:49:45;4.83;;;3.70;;
15921;SDS011;8060;50.948;3.146;2024-02-26T03:52:13;5.10;;;4.50;;
15921;SDS011;8060;50.948;3.146;2024-02-26T03:54:41;5.73;;;4.83;;
15921;SDS011;8060;50.948;3.146;2024-02-26T03:57:09;7.50;;;5.70;;
15921;SDS011;8060;50.948;3.146;2024-02-26T03:59:38;8.90;;;6.50;;
15921;SDS011;8060;50.948;3.146;2024-02-26T04:02:06;8.83;;;7.10;;
15921;SDS011;8060;50.948;3.146;2024-02-26T04:04:37;8.73;;;7.63;;
15921;SDS011;8060;50.948;3.146;2024-02-26T04:07:05;10.83;;;8.10;;
15921;SDS011;8060;50.948;3.146;2024-02-26T04:09:34;9.50;;;8.00;;
15921;SDS011;8060;50.948;3.146;2024-02-26T04:12:02;9.80;;;8.20;;
15921;SDS011;8060;50.948;3.146;2024-02-26T04:14:31;9.60;;;8.07;;
15921;SDS011;8060;50.948;3.146;2024-02-26T04:16:59;10.20;;;8.53;;
15921;SDS011;8060;50.948;3.146;2024-02-26T04:19:27;11.17;;;8.67;;
15921;SDS011;8060;50.948;3.146;2024-02-26T04:21:57;11.27;;;9.10;;
15921;SDS011;8060;50.948;3.146;2024-02-26T04:24:25;11.70;;;8.83;;
15921;SDS011;8060;50.948;3.146;2024-02-26T04:26:53;10.47;;;8.57;;
15921;SDS011;8060;50.948;3.146;2024-02-26T04:29:21;13.53;;;9.50;;
15921;SDS011;8060;50.948;3.146;2024-02-26T04:31:49;11.47;;;9.23;;
15921;SDS011;8060;50.948;3.146;2024-02-26T04:34:17;11.90;;;10.30;;
15921;SDS011;8060;50.948;3.146;2024-02-26T04:36:46;13.60;;;10.03;;
15921;SDS011;8060;50.948;3.146;2024-02-26T04:39:15;12.80;;;10.20;;
15921;SDS011;8060;50.948;3.146;2024-02-26T04:41:44;12.43;;;10.50;;
15921;SDS011;8060;50.948;3.146;2024-02-26T04:44:12;11.57;;;10.37;;
15921;SDS011;8060;50.948;3.146;2024-02-26T04:46:40;14.87;;;11.07;;
15921;SDS011;8060;50.948;3.146;2024-02-26T04:49:09;12.67;;;10.37;;
15921;SDS011;8060;50.948;3.146;2024-02-26T04:51:37;13.07;;;11.07;;
15921;SDS011;8060;50.948;3.146;2024-02-26T04:54:05;12.03;;;10.47;;
15921;SDS011;8060;50.948;3.146;2024-02-26T04:56:35;12.43;;;9.97;;
15921;SDS011;8060;50.948;3.146;2024-02-26T04:59:03;12.17;;;10.63;;
15921;SDS011;8060;50.948;3.146;2024-02-26T05:01:31;12.23;;;10.13;;
15921;SDS011;8060;50.948;3.146;2024-02-26T05:03:59;10.67;;;9.57;;
15921;SDS011;8060;50.948;3.146;2024-02-26T05:06:28;10.33;;;9.33;;
15921;SDS011;8060;50.948;3.146;2024-02-26T05:08:56;11.13;;;9.90;;
15921;SDS011;8060;50.948;3.146;2024-02-26T05:11:24;10.57;;;8.93;;
15921;SDS011;8060;50.948;3.146;2024-02-26T05:13:54;11.00;;;9.67;;
15921;SDS011;8060;50.948;3.146;2024-02-26T05:16:22;10.80;;;9.50;;
15921;SDS011;8060;50.948;3.146;2024-02-26T05:18:53;12.77;;;9.20;;
15921;SDS011;8060;50.948;3.146;2024-02-26T05:21:22;9.93;;;8.87;;
15921;SDS011;8060;50.948;3.146;2024-02-26T05:23:50;10.60;;;9.50;;
15921;SDS011;8060;50.948;3.146;2024-02-26T05:26:21;11.60;;;9.37;;
15921;SDS011;8060;50.948;3.146;2024-02-26T05:28:50;10.33;;;9.20;;
15921;SDS011;8060;50.948;3.146;2024-02-26T05:31:19;9.93;;;8.30;;
15921;SDS011;8060;50.948;3.146;2024-02-26T05:33:47;11.20;;;8.47;;
15921;SDS011;8060;50.948;3.146;2024-02-26T05:36:18;10.23;;;8.63;;
15921;SDS011;8060;50.948;3.146;2024-02-26T05:38:48;10.40;;;8.37;;
15921;SDS011;8060;50.948;3.146;2024-02-26T05:41:17;12.07;;;8.03;;
15921;SDS011;8060;50.948;3.146;2024-02-26T05:43:49;9.30;;;7.90;;
15921;SDS011;8060;50.948;3.146;2024-02-26T05:46:17;9.33;;;7.93;;
15921;SDS011;8060;50.948;3.146;2024-02-26T05:48:47;12.23;;;8.07;;
15921;SDS011;8060;50.948;3.146;2024-02-26T05:51:18;11.40;;;8.07;;
15921;SDS011;8060;50.948;3.146;2024-02-26T05:53:46;9.50;;;7.97;;
15921;SDS011;8060;50.948;3.146;2024-02-26T05:56:20;10.30;;;7.10;;
15921;SDS011;8060;50.948;3.146;2024-02-26T05:58:49;10.43;;;7.10;;
15921;SDS011;8060;50.948;3.146;2024-02-26T06:01:19;10.37;;;7.07;;
15921;SDS011;8060;50.948;3.146;2024-02-26T06:03:48;9.93;;;6.80;;
15921;SDS011;8060;50.948;3.146;2024-02-26T06:06:16;8.07;;;6.70;;
15921;SDS011;8060;50.948;3.146;2024-02-26T06:08:45;9.77;;;7.23;;
15921;SDS011;8060;50.948;3.146;2024-02-26T06:11:13;9.30;;;6.77;;
15921;SDS011;8060;50.948;3.146;2024-02-26T06:13:41;9.53;;;6.97;;
15921;SDS011;8060;50.948;3.146;2024-02-26T06:16:09;9.07;;;7.47;;
15921;SDS011;8060;50.948;3.146;2024-02-26T06:18:38;8.53;;;7.57;;
15921;SDS011;8060;50.948;3.146;2024-02-26T06:21:08;9.83;;;8.20;;
15921;SDS011;8060;50.948;3.146;2024-02-26T06:23:37;8.93;;;7.50;;
15921;SDS011;8060;50.948;3.146;2024-02-26T06:26:05;9.93;;;7.17;;
15921;SDS011;8060;50.948;3.146;2024-02-26T06:28:33;10.03;;;7.10;;
15921;SDS011;8060;50.948;3.146;2024-02-26T06:31:02;12.60;;;8.13;;
15921;SDS011;8060;50.948;3.146;2024-02-26T06:33:32;10.17;;;8.30;;
15921;SDS011;8060;50.948;3.146;2024-02-26T06:36:02;11.60;;;8.13;;
15921;SDS011;8060;50.948;3.146;2024-02-26T06:38:31;10.53;;;8.60;;
15921;SDS011;8060;50.948;3.146;2024-02-26T06:40:59;9.03;;;7.93;;
15921;SDS011;8060;50.948;3.146;2024-02-26T06:43:29;11.00;;;8.00;;
15921;SDS011;8060;50.948;3.146;2024-02-26T06:45:57;11.10;;;9.07;;
15921;SDS011;8060;50.948;3.146;2024-02-26T06:48:25;12.30;;;8.17;;
15921;SDS011;8060;50.948;3.146;2024-02-26T06:50:54;10.13;;;8.67;;
15921;SDS011;8060;50.948;3.146;2024-02-26T06:53:23;10.03;;;8.13;;
15921;SDS011;8060;50.948;3.146;2024-02-26T06:55:52;12.47;;;8.30;;
15921;SDS011;8060;50.948;3.146;2024-02-26T06:58:20;11.43;;;8.27;;
15921;SDS011;8060;50.948;3.146;2024-02-26T07:00:48;9.53;;;8.03;;
15921;SDS011;8060;50.948;3.146;2024-02-26T07:03:16;11.33;;;8.80;;
15921;SDS011;8060;50.948;3.146;2024-02-26T07:05:44;12.40;;;9.00;;
15921;SDS011;8060;50.948;3.146;2024-02-26T07:08:12;12.63;;;8.67;;
15921;SDS011;8060;50.948;3.146;2024-02-26T07:10:42;9.97;;;7.97;;
15921;SDS011;8060;50.948;3.146;2024-02-26T07:13:11;10.43;;;7.97;;
15921;SDS011;8060;50.948;3.146;2024-02-26T07:15:39;11.43;;;8.20;;
15921;SDS011;8060;50.948;3.146;2024-02-26T07:18:07;11.60;;;8.37;;
15921;SDS011;8060;50.948;3.146;2024-02-26T07:20:37;9.80;;;7.97;;
15921;SDS011;8060;50.948;3.146;2024-02-26T07:23:05;10.20;;;7.50;;
15921;SDS011;8060;50.948;3.146;2024-02-26T07:25:34;9.57;;;7.97;;
15921;SDS011;8060;50.948;3.146;2024-02-26T07:28:03;10.83;;;7.60;;
15921;SDS011;8060;50.948;3.146;2024-02-26T07:30:31;11.07;;;7.97;;
15921;SDS011;8060;50.948;3.146;2024-02-26T07:33:00;10.57;;;7.80;;
15921;SDS011;8060;50.948;3.146;2024-02-26T07:35:28;10.23;;;6.93;;
15921;SDS011;8060;50.948;3.146;2024-02-26T07:37:56;8.20;;;6.97;;
15921;SDS011;8060;50.948;3.146;2024-02-26T07:40:24;9.37;;;7.33;;
15921;SDS011;8060;50.948;3.146;2024-02-26T07:42:52;9.87;;;6.80;;
15921;SDS011;8060;50.948;3.146;2024-02-26T07:45:21;12.67;;;7.20;;
15921;SDS011;8060;50.948;3.146;2024-02-26T07:47:50;11.43;;;6.10;;
15921;SDS011;8060;50.948;3.146;2024-02-26T07:50:18;10.70;;;6.57;;
15921;SDS011;8060;50.948;3.146;2024-02-26T07:52:47;7.93;;;5.80;;
15921;SDS011;8060;50.948;3.146;2024-02-26T07:55:17;8.53;;;6.73;;
15921;SDS011;8060;50.948;3.146;2024-02-26T07:57:45;9.57;;;6.17;;
15921;SDS011;8060;50.948;3.146;2024-02-26T08:00:14;9.07;;;6.03;;
15921;SDS011;8060;50.948;3.146;2024-02-26T08:02:45;8.27;;;5.63;;
15921;SDS011;8060;50.948;3.146;2024-02-26T08:05:13;7.50;;;5.60;;
15921;SDS011;8060;50.948;3.146;2024-02-26T08:07:41;5.70;;;4.80;;
15921;SDS011;8060;50.948;3.146;2024-02-26T08:10:10;7.40;;;5.03;;
15921;SDS011;8060;50.948;3.146;2024-02-26T08:12:38;11.27;;;5.67;;
15921;SDS011;8060;50.948;3.146;2024-02-26T08:15:07;6.37;;;4.63;;
15921;SDS011;8060;50.948;3.146;2024-02-26T08:17:37;8.13;;;4.83;;
15921;SDS011;8060;50.948;3.146;2024-02-26T08:20:07;7.13;;;5.00;;
15921;SDS011;8060;50.948;3.146;2024-02-26T08:22:36;9.30;;;4.70;;
15921;SDS011;8060;50.948;3.146;2024-02-26T08:25:05;7.43;;;4.27;;
15921;SDS011;8060;50.948;3.146;2024-02-26T08:27:35;6.10;;;4.10;;
15921;SDS011;8060;50.948;3.146;2024-02-26T08:30:04;6.03;;;4.13;;
15921;SDS011;8060;50.948;3.146;2024-02-26T08:32:33;7.33;;;4.77;;
15921;SDS011;8060;50.948;3.146;2024-02-26T08:35:02;7.17;;;4.50;;
15921;SDS011;8060;50.948;3.146;2024-02-26T08:37:31;7.43;;;4.90;;
15921;SDS011;8060;50.948;3.146;2024-02-26T08:40:00;7.30;;;5.03;;
15921;SDS011;8060;50.948;3.146;2024-02-26T08:42:32;8.30;;;4.87;;
15921;SDS011;8060;50.948;3.146;2024-02-26T08:45:01;8.90;;;5.13;;
15921;SDS011;8060;50.948;3.146;2024-02-26T08:47:30;10.43;;;4.97;;
15921;SDS011;8060;50.948;3.146;2024-02-26T08:49:58;10.47;;;5.47;;
15921;SDS011;8060;50.948;3.146;2024-02-26T08:52:27;9.33;;;5.60;;
15921;SDS011;8060;50.948;3.146;2024-02-26T08:54:56;10.17;;;5.33;;
15921;SDS011;8060;50.948;3.146;2024-02-26T08:57:24;12.40;;;5.50;;
15921;SDS011;8060;50.948;3.146;2024-02-26T08:59:54;8.47;;;5.30;;
15921;SDS011;8060;50.948;3.146;2024-02-26T09:02:22;9.43;;;4.67;;
15921;SDS011;8060;50.948;3.146;2024-02-26T09:04:50;9.17;;;5.30;;
15921;SDS011;8060;50.948;3.146;2024-02-26T09:07:20;9.80;;;5.80;;
15921;SDS011;8060;50.948;3.146;2024-02-26T09:09:48;10.53;;;5.50;;
15921;SDS011;8060;50.948;3.146;2024-02-26T09:12:18;10.33;;;5.70;;
15921;SDS011;8060;50.948;3.146;2024-02-26T09:14:47;7.50;;;4.90;;
15921;SDS011;8060;50.948;3.146;2024-02-26T09:17:16;6.43;;;5.13;;
15921;SDS011;8060;50.948;3.146;2024-02-26T09:19:44;7.37;;;5.47;;
15921;SDS011;8060;50.948;3.146;2024-02-26T09:22:12;7.60;;;5.33;;
15921;SDS011;8060;50.948;3.146;2024-02-26T09:24:44;8.43;;;5.73;;
15921;SDS011;8060;50.948;3.146;2024-02-26T09:27:13;8.50;;;5.67;;
15921;SDS011;8060;50.948;3.146;2024-02-26T09:29:43;10.33;;;6.13;;
15921;SDS011;8060;50.948;3.146;2024-02-26T09:32:11;9.83;;;6.60;;
15921;SDS011;8060;50.948;3.146;2024-02-26T09:34:39;11.17;;;7.00;;
15921;SDS011;8060;50.948;3.146;2024-02-26T09:37:08;14.17;;;7.57;;
15921;SDS011;8060;50.948;3.146;2024-02-26T09:39:47;13.07;;;8.07;;
15921;SDS011;8060;50.948;3.146;2024-02-26T09:42:15;17.27;;;8.20;;
15921;SDS011;8060;50.948;3.146;2024-02-26T09:44:48;13.50;;;8.33;;
15921;SDS011;8060;50.948;3.146;2024-02-26T09:47:21;15.00;;;9.00;;
15921;SDS011;8060;50.948;3.146;2024-02-26T09:49:53;18.30;;;9.30;;
15921;SDS011;8060;50.948;3.146;2024-02-26T09:52:24;14.83;;;9.20;;
15921;SDS011;8060;50.948;3.146;2024-02-26T09:54:55;15.70;;;9.07;;
15921;SDS011;8060;50.948;3.146;2024-02-26T09:57:23;16.70;;;9.27;;
15921;SDS011;8060;50.948;3.146;2024-02-26T09:59:54;16.33;;;9.83;;
15921;SDS011;8060;50.948;3.146;2024-02-26T10:02:28;18.23;;;10.00;;
15921;SDS011;8060;50.948;3.146;2024-02-26T10:04:56;18.27;;;10.60;;
15921;SDS011;8060;50.948;3.146;2024-02-26T10:07:28;20.03;;;10.33;;
15921;SDS011;8060;50.948;3.146;2024-02-26T10:09:57;19.10;;;10.67;;
15921;SDS011;8060;50.948;3.146;2024-02-26T10:12:25;16.43;;;9.60;;
15921;SDS011;8060;50.948;3.146;2024-02-26T10:14:59;14.57;;;9.57;;
15921;SDS011;8060;50.948;3.146;2024-02-26T10:17:27;21.17;;;11.10;;
15921;SDS011;8060;50.948;3.146;2024-02-26T10:19:59;19.97;;;11.17;;
15921;SDS011;8060;50.948;3.146;2024-02-26T10:22:39;17.33;;;10.40;;
15921;SDS011;8060;50.948;3.146;2024-02-26T10:25:08;20.63;;;11.33;;
15921;SDS011;8060;50.948;3.146;2024-02-26T10:27:36;19.70;;;10.70;;
15921;SDS011;8060;50.948;3.146;2024-02-26T10:30:13;19.43;;;11.83;;
15921;SDS011;8060;50.948;3.146;2024-02-26T10:32:44;19.77;;;12.20;;
15921;SDS011;8060;50.948;3.146;2024-02-26T10:35:13;21.17;;;11.87;;
15921;SDS011;8060;50.948;3.146;2024-02-26T10:37:42;24.30;;;13.13;;
15921;SDS011;8060;50.948;3.146;2024-02-26T10:40:10;20.67;;;11.70;;
15921;SDS011;8060;50.948;3.146;2024-02-26T10:42:39;19.53;;;12.47;;
15921;SDS011;8060;50.948;3.146;2024-02-26T10:45:09;20.83;;;13.27;;
15921;SDS011;8060;50.948;3.146;2024-02-26T10:47:37;23.83;;;13.37;;
15921;SDS011;8060;50.948;3.146;2024-02-26T10:50:08;20.10;;;12.80;;
15921;SDS011;8060;50.948;3.146;2024-02-26T10:52:36;21.37;;;13.03;;
15921;SDS011;8060;50.948;3.146;2024-02-26T10:55:05;19.43;;;12.53;;
15921;SDS011;8060;50.948;3.146;2024-02-26T10:57:35;21.83;;;12.33;;
15921;SDS011;8060;50.948;3.146;2024-02-26T11:00:10;19.37;;;12.60;;
15921;SDS011;8060;50.948;3.146;2024-02-26T11:02:42;19.83;;;12.40;;
15921;SDS011;8060;50.948;3.146;2024-02-26T11:05:12;19.73;;;12.63;;
15921;SDS011;8060;50.948;3.146;2024-02-26T11:07:42;20.57;;;13.10;;
15921;SDS011;8060;50.948;3.146;2024-02-26T11:10:13;20.57;;;11.90;;
15921;SDS011;8060;50.948;3.146;2024-02-26T11:12:44;19.23;;;12.10;;
15921;SDS011;8060;50.948;3.146;2024-02-26T11:15:15;16.47;;;10.93;;
15921;SDS011;8060;50.948;3.146;2024-02-26T11:17:44;21.17;;;12.60;;
15921;SDS011;8060;50.948;3.146;2024-02-26T11:20:15;20.53;;;13.00;;
15921;SDS011;8060;50.948;3.146;2024-02-26T11:22:45;18.60;;;11.60;;
15921;SDS011;8060;50.948;3.146;2024-02-26T11:25:13;18.40;;;12.07;;
15921;SDS011;8060;50.948;3.146;2024-02-26T11:27:44;17.73;;;12.37;;
15921;SDS011;8060;50.948;3.146;2024-02-26T11:30:16;18.33;;;12.57;;
15921;SDS011;8060;50.948;3.146;2024-02-26T11:32:46;17.30;;;11.93;;
15921;SDS011;8060;50.948;3.146;2024-02-26T11:35:15;18.17;;;11.97;;
15921;SDS011;8060;50.948;3.146;2024-02-26T11:37:51;16.00;;;12.00;;
15921;SDS011;8060;50.948;3.146;2024-02-26T11:40:20;14.97;;;10.77;;
15921;SDS011;8060;50.948;3.146;2024-02-26T11:42:50;14.80;;;10.40;;
15921;SDS011;8060;50.948;3.146;2024-02-26T11:48:21;12.47;;;8.90;;
15921;SDS011;8060;50.948;3.146;2024-02-26T11:50:52;14.63;;;10.13;;
15921;SDS011;8060;50.948;3.146;2024-02-26T11:53:22;13.40;;;8.80;;
15921;SDS011;8060;50.948;3.146;2024-02-26T11:56:12;11.40;;;8.83;;
15921;SDS011;8060;50.948;3.146;2024-02-26T11:58:47;13.10;;;9.43;;
15921;SDS011;8060;50.948;3.146;2024-02-26T12:04:16;11.37;;;8.23;;
15921;SDS011;8060;50.948;3.146;2024-02-26T12:06:46;11.13;;;8.27;;
15921;SDS011;8060;50.948;3.146;2024-02-26T12:09:36;13.33;;;8.23;;
15921;SDS011;8060;50.948;3.146;2024-02-26T12:12:05;11.20;;;7.70;;
15921;SDS011;8060;50.948;3.146;2024-02-26T12:14:37;14.63;;;8.40;;
15921;SDS011;8060;50.948;3.146;2024-02-26T12:17:07;11.50;;;7.60;;
15921;SDS011;8060;50.948;3.146;2024-02-26T12:19:47;10.50;;;7.43;;
15921;SDS011;8060;50.948;3.146;2024-02-26T12:22:16;11.13;;;6.93;;
15921;SDS011;8060;50.948;3.146;2024-02-26T12:24:44;9.33;;;6.70;;
15921;SDS011;8060;50.948;3.146;2024-02-26T12:27:12;9.80;;;7.77;;
15921;SDS011;8060;50.948;3.146;2024-02-26T12:29:41;11.50;;;6.53;;
15921;SDS011;8060;50.948;3.146;2024-02-26T12:32:11;9.70;;;6.53;;
15921;SDS011;8060;50.948;3.146;2024-02-26T12:34:40;9.77;;;6.27;;
15921;SDS011;8060;50.948;3.146;2024-02-26T12:37:08;9.40;;;6.37;;
15921;SDS011;8060;50.948;3.146;2024-02-26T12:39:38;7.87;;;6.00;;
15921;SDS011;8060;50.948;3.146;2024-02-26T12:42:06;9.80;;;6.27;;
15921;SDS011;8060;50.948;3.146;2024-02-26T12:44:35;8.90;;;6.33;;
15921;SDS011;8060;50.948;3.146;2024-02-26T12:47:03;11.67;;;6.83;;
15921;SDS011;8060;50.948;3.146;2024-02-26T12:49:33;8.80;;;5.73;;
15921;SDS011;8060;50.948;3.146;2024-02-26T12:52:01;9.23;;;5.80;;
15921;SDS011;8060;50.948;3.146;2024-02-26T12:54:30;10.53;;;5.93;;
15921;SDS011;8060;50.948;3.146;2024-02-26T12:57:01;7.63;;;5.60;;
15921;SDS011;8060;50.948;3.146;2024-02-26T12:59:30;8.67;;;5.50;;
15921;SDS011;8060;50.948;3.146;2024-02-26T13:01:59;9.43;;;5.17;;
15921;SDS011;8060;50.948;3.146;2024-02-26T13:04:29;7.23;;;5.33;;
15921;SDS011;8060;50.948;3.146;2024-02-26T13:06:59;8.30;;;5.07;;
15921;SDS011;8060;50.948;3.146;2024-02-26T13:09:32;8.77;;;4.90;;
15921;SDS011;8060;50.948;3.146;2024-02-26T13:12:03;6.60;;;4.80;;
15921;SDS011;8060;50.948;3.146;2024-02-26T13:14:32;7.97;;;4.27;;
15921;SDS011;8060;50.948;3.146;2024-02-26T13:17:01;9.67;;;4.73;;
15921;SDS011;8060;50.948;3.146;2024-02-26T13:19:30;8.07;;;4.93;;
15921;SDS011;8060;50.948;3.146;2024-02-26T13:22:04;7.93;;;4.90;;
15921;SDS011;8060;50.948;3.146;2024-02-26T13:24:33;9.23;;;6.93;;
15921;SDS011;8060;50.948;3.146;2024-02-26T13:27:02;8.30;;;5.20;;
15921;SDS011;8060;50.948;3.146;2024-02-26T13:29:33;9.50;;;6.10;;
15921;SDS011;8060;50.948;3.146;2024-02-26T13:32:01;7.33;;;5.30;;
15921;SDS011;8060;50.948;3.146;2024-02-26T13:34:29;6.47;;;5.13;;
15921;SDS011;8060;50.948;3.146;2024-02-26T13:36:58;9.10;;;5.70;;
15921;SDS011;8060;50.948;3.146;2024-02-26T13:39:28;7.97;;;4.90;;
15921;SDS011;8060;50.948;3.146;2024-02-26T13:41:57;6.17;;;4.90;;
15921;SDS011;8060;50.948;3.146;2024-02-26T13:44:25;6.00;;;4.77;;
15921;SDS011;8060;50.948;3.146;2024-02-26T13:46:53;6.87;;;4.73;;
15921;SDS011;8060;50.948;3.146;2024-02-26T13:49:21;6.53;;;5.00;;
15921;SDS011;8060;50.948;3.146;2024-02-26T13:51:50;7.27;;;4.57;;
15921;SDS011;8060;50.948;3.146;2024-02-26T13:54:18;6.73;;;5.00;;
15921;SDS011;8060;50.948;3.146;2024-02-26T13:56:47;7.90;;;5.60;;
15921;SDS011;8060;50.948;3.146;2024-02-26T13:59:16;6.50;;;4.80;;
15921;SDS011;8060;50.948;3.146;2024-02-26T14:01:44;7.10;;;4.30;;
15921;SDS011;8060;50.948;3.146;2024-02-26T14:04:12;7.00;;;4.80;;
15921;SDS011;8060;50.948;3.146;2024-02-26T14:06:40;7.10;;;4.67;;
15921;SDS011;8060;50.948;3.146;2024-02-26T14:09:08;6.00;;;4.77;;
15921;SDS011;8060;50.948;3.146;2024-02-26T14:11:36;6.60;;;5.20;;
15921;SDS011;8060;50.948;3.146;2024-02-26T14:14:07;6.60;;;5.00;;
15921;SDS011;8060;50.948;3.146;2024-02-26T14:16:35;7.37;;;5.90;;
15921;SDS011;8060;50.948;3.146;2024-02-26T14:19:04;7.60;;;5.50;;
15921;SDS011;8060;50.948;3.146;2024-02-26T14:21:32;5.83;;;4.77;;
15921;SDS011;8060;50.948;3.146;2024-02-26T14:24:00;6.73;;;6.03;;
15921;SDS011;8060;50.948;3.146;2024-02-26T14:26:28;6.30;;;4.87;;
15921;SDS011;8060;50.948;3.146;2024-02-26T14:28:56;8.43;;;5.43;;
15921;SDS011;8060;50.948;3.146;2024-02-26T14:31:26;7.33;;;5.50;;
15921;SDS011;8060;50.948;3.146;2024-02-26T14:33:54;8.53;;;5.80;;
15921;SDS011;8060;50.948;3.146;2024-02-26T14:36:23;7.70;;;5.50;;
15921;SDS011;8060;50.948;3.146;2024-02-26T14:38:52;8.50;;;5.57;;
15921;SDS011;8060;50.948;3.146;2024-02-26T14:41:20;7.60;;;5.20;;
15921;SDS011;8060;50.948;3.146;2024-02-26T14:43:48;11.77;;;6.00;;
15921;SDS011;8060;50.948;3.146;2024-02-26T14:46:16;8.50;;;5.97;;
15921;SDS011;8060;50.948;3.146;2024-02-26T14:48:46;9.20;;;5.47;;
15921;SDS011;8060;50.948;3.146;2024-02-26T14:51:14;7.57;;;5.53;;
15921;SDS011;8060;50.948;3.146;2024-02-26T14:53:42;7.63;;;6.00;;
15921;SDS011;8060;50.948;3.146;2024-02-26T14:56:10;8.50;;;6.77;;
15921;SDS011;8060;50.948;3.146;2024-02-26T14:58:38;11.50;;;6.40;;
15921;SDS011;8060;50.948;3.146;2024-02-26T15:01:07;10.23;;;7.10;;
15921;SDS011;8060;50.948;3.146;2024-02-26T15:03:35;8.67;;;6.53;;
15921;SDS011;8060;50.948;3.146;2024-02-26T15:06:04;12.27;;;7.70;;
15921;SDS011;8060;50.948;3.146;2024-02-26T15:08:33;8.17;;;6.23;;
15921;SDS011;8060;50.948;3.146;2024-02-26T15:11:02;7.50;;;6.07;;